createdAt,value
2023-02-22T00:06:39.480Z,98902.72
2023-02-22T00:21:41.310Z,98894.63
2023-02-22T00:36:49.599Z,98908.47
2023-02-22T00:51:51.397Z,98922.91
2023-02-22T01:06:54.291Z,98946.75
2023-02-22T01:21:56.181Z,98950.81
2023-02-22T01:36:58.666Z,98973.59
2023-02-22T01:52:04.288Z,98983.66
2023-02-22T02:07:09.031Z,98996.63
2023-02-22T02:22:17.497Z,99034.69
2023-02-22T02:37:54.331Z,99051.53
2023-02-22T02:53:01.424Z,99111.56
2023-02-22T03:08:28.569Z,99124.34
2023-02-22T03:23:45.524Z,99162.69
2023-02-22T03:38:50.177Z,99198.00
2023-02-22T03:53:52.440Z,99220.63
2023-02-22T04:08:54.383Z,99251.69
2023-02-22T04:23:56.180Z,99309.97
2023-02-22T04:38:59.553Z,99353.72
2023-02-22T04:54:01.392Z,99380.66
2023-02-22T05:09:03.418Z,99409.78
2023-02-22T05:24:05.614Z,99445.81
2023-02-22T05:39:07.492Z,99494.53
2023-02-22T05:54:09.322Z,99540.13
2023-02-22T06:09:11.701Z,99555.44
2023-02-22T06:24:13.503Z,99585.38
2023-02-22T06:39:16.762Z,99614.72
2023-02-22T06:54:18.622Z,99655.13
2023-02-22T07:09:20.769Z,99680.09
2023-02-22T07:24:22.577Z,99701.25
2023-02-22T07:39:24.410Z,99715.81
2023-02-22T07:54:26.214Z,99723.53
2023-02-22T08:09:28.185Z,99741.16
2023-02-22T08:24:29.993Z,99768.81
2023-02-22T08:39:31.915Z,99778.41
2023-02-22T08:54:33.859Z,99802.63
2023-02-22T09:09:36.083Z,99807.22
2023-02-22T09:24:37.996Z,99816.44
2023-02-22T09:39:40.091Z,99837.16
2023-02-22T09:54:46.549Z,99842.41
2023-02-22T10:09:50.450Z,99826.72
2023-02-22T10:25:13.035Z,99836.56
2023-02-22T10:40:24.112Z,99845.81
2023-02-22T10:55:26.133Z,99862.47
2023-02-22T11:10:32.586Z,99872.44
2023-02-22T11:25:37.641Z,99876.88
2023-02-22T11:40:40.341Z,99895.16
2023-02-22T11:56:09.691Z,99898.66
2023-02-22T12:11:20.448Z,99917.84
2023-02-22T12:26:34.176Z,99926.31
2023-02-22T12:41:53.166Z,99943.84
2023-02-22T12:57:05.882Z,99962.06
2023-02-22T13:12:16.453Z,99964.75
2023-02-22T13:27:50.720Z,99979.69
2023-02-22T13:43:23.231Z,99991.50
2023-02-22T13:58:26.462Z,100015.97
2023-02-22T14:13:31.360Z,100027.31
2023-02-22T14:28:35.937Z,100042.69
2023-02-22T14:43:39.113Z,100052.34
2023-02-22T14:58:48.919Z,100068.63
2023-02-22T15:13:54.882Z,100086.44
2023-02-22T15:28:58.439Z,100103.91
2023-02-22T15:44:14.205Z,100142.00
2023-02-22T15:59:29.761Z,100160.25
2023-02-22T16:14:42.876Z,100185.13
2023-02-22T16:30:07.840Z,100204.56
2023-02-22T16:45:16.931Z,100216.56
2023-02-22T17:00:31.414Z,100227.88
2023-02-22T17:15:35.721Z,100224.53
2023-02-22T17:30:37.855Z,100228.91
2023-02-22T17:45:41.078Z,100240.75
2023-02-22T18:00:46.449Z,100244.13
2023-02-22T18:15:48.865Z,100246.81
2023-02-22T18:30:52.883Z,100254.66
2023-02-22T18:46:12.458Z,100279.94
2023-02-22T19:01:19.151Z,100302.63
2023-02-22T19:16:23.422Z,100310.84
2023-02-22T19:31:31.474Z,100315.97
2023-02-22T19:46:33.942Z,100343.38
2023-02-22T20:01:37.283Z,100357.47
2023-02-22T20:16:39.334Z,100358.13
2023-02-22T20:31:42.777Z,100384.78
2023-02-22T20:46:45.715Z,100378.56
2023-02-22T21:01:50.115Z,100390.41
2023-02-22T21:16:52.505Z,100384.66
2023-02-22T21:31:54.495Z,100393.53
2023-02-22T21:46:56.563Z,100418.69
2023-02-22T22:01:58.584Z,100434.00
2023-02-22T22:17:01.713Z,100435.13
2023-02-22T22:32:03.812Z,100438.25
2023-02-22T22:47:06.094Z,100444.34
2023-02-22T23:02:11.105Z,100466.78
2023-02-22T23:17:15.834Z,100481.31
2023-02-22T23:32:17.734Z,100511.75
2023-02-22T23:47:19.585Z,100523.91
